createdAt,value
2022-08-29T00:00:25.516Z,74.50
2022-08-29T00:03:30.355Z,75.00
2022-08-29T00:06:33.634Z,74.90
2022-08-29T00:09:36.935Z,74.90
2022-08-29T00:12:40.608Z,74.90
2022-08-29T00:15:45.650Z,74.80
2022-08-29T00:18:49.023Z,74.80
2022-08-29T00:21:52.325Z,73.40
2022-08-29T00:24:55.542Z,74.80
2022-08-29T00:27:59.328Z,74.70
2022-08-29T00:31:04.069Z,74.80
2022-08-29T00:34:07.825Z,74.60
2022-08-29T00:37:11.099Z,75.10
2022-08-29T00:40:19.497Z,75.90
2022-08-29T00:43:27.209Z,75.30
2022-08-29T00:46:52.736Z,75.40
2022-08-29T00:49:58.500Z,76.10
2022-08-29T00:53:05.579Z,75.40
2022-08-29T00:56:12.086Z,75.30
2022-08-29T00:59:20.811Z,75.10
2022-08-29T01:02:25.776Z,75.10
2022-08-29T01:05:29.229Z,75.00
2022-08-29T01:08:33.145Z,74.90
2022-08-29T01:11:54.441Z,74.90
2022-08-29T01:15:03.786Z,74.90
2022-08-29T01:18:10.277Z,75.00
2022-08-29T01:21:25.422Z,75.50
2022-08-29T01:24:41.269Z,75.30
2022-08-29T01:27:53.929Z,75.30
2022-08-29T01:31:07.312Z,74.90
2022-08-29T01:34:12.037Z,75.00
2022-08-29T01:37:17.448Z,74.80
2022-08-29T01:40:22.392Z,75.10
2022-08-29T01:43:28.251Z,75.10
2022-08-29T01:46:36.351Z,75.80
2022-08-29T01:49:40.956Z,74.30
2022-08-29T01:52:44.858Z,75.60
2022-08-29T01:55:49.480Z,75.70
2022-08-29T01:58:54.711Z,76.00
2022-08-29T02:02:05.584Z,75.70
2022-08-29T02:05:09.942Z,76.00
2022-08-29T02:08:13.340Z,75.80
2022-08-29T02:11:18.541Z,75.90
2022-08-29T02:14:23.408Z,76.10
2022-08-29T02:17:27.153Z,76.20
2022-08-29T02:20:31.220Z,75.00
2022-08-29T02:23:36.190Z,75.40
2022-08-29T02:26:40.988Z,77.00
2022-08-29T02:29:44.264Z,76.00
2022-08-29T02:32:47.926Z,76.20
2022-08-29T02:35:51.309Z,77.20
2022-08-29T02:38:54.721Z,76.40
2022-08-29T02:41:59.356Z,76.40
2022-08-29T02:45:03.313Z,77.40
2022-08-29T02:48:07.838Z,76.30
2022-08-29T02:51:11.155Z,76.20
2022-08-29T02:54:14.623Z,76.10
2022-08-29T02:57:19.389Z,76.10
2022-08-29T03:00:27.487Z,76.60
2022-08-29T03:03:30.711Z,76.10
2022-08-29T03:06:34.419Z,76.00
2022-08-29T03:09:37.629Z,75.90
2022-08-29T03:12:42.508Z,75.70
2022-08-29T03:15:46.008Z,75.60
2022-08-29T03:18:49.226Z,74.20
2022-08-29T03:21:52.787Z,75.40
2022-08-29T03:24:56.239Z,75.30
2022-08-29T03:28:01.839Z,75.30
2022-08-29T03:31:05.377Z,74.80
2022-08-29T03:34:08.752Z,75.40
2022-08-29T03:37:12.413Z,75.20
2022-08-29T03:40:16.718Z,75.60
2022-08-29T03:43:21.918Z,75.60
2022-08-29T03:46:25.364Z,75.30
2022-08-29T03:49:29.031Z,75.60
2022-08-29T03:52:32.231Z,75.60
2022-08-29T03:55:35.521Z,75.60
2022-08-29T03:58:40.413Z,76.80
2022-08-29T04:01:44.214Z,76.70
2022-08-29T04:05:07.984Z,75.60
2022-08-29T04:08:11.856Z,74.50
2022-08-29T04:11:18.368Z,75.70
2022-08-29T04:14:23.485Z,75.60
2022-08-29T04:17:26.692Z,75.60
2022-08-29T04:20:35.511Z,75.50
2022-08-29T04:23:40.782Z,75.60
2022-08-29T04:26:44.021Z,75.60
2022-08-29T04:29:49.195Z,75.70
2022-08-29T04:32:53.260Z,75.80
2022-08-29T04:35:56.474Z,75.50
2022-08-29T04:38:59.647Z,75.10
2022-08-29T04:42:02.887Z,74.40
2022-08-29T04:45:12.329Z,74.50
2022-08-29T04:48:17.660Z,72.90
2022-08-29T04:51:21.920Z,73.80
2022-08-29T04:54:25.316Z,73.60
2022-08-29T04:57:28.524Z,73.60
2022-08-29T05:00:33.390Z,74.50
2022-08-29T05:03:36.643Z,74.20
2022-08-29T05:06:39.944Z,73.20
2022-08-29T05:09:43.293Z,73.30
2022-08-29T05:12:47.967Z,73.00
2022-08-29T05:15:52.732Z,72.80
2022-08-29T05:18:56.570Z,72.50
2022-08-29T05:21:59.769Z,72.60
2022-08-29T05:25:04.866Z,72.40
2022-08-29T05:28:11.223Z,72.40
2022-08-29T05:31:16.641Z,72.30
2022-08-29T05:34:34.618Z,72.00
2022-08-29T05:37:38.706Z,72.70
2022-08-29T05:40:42.276Z,72.70
2022-08-29T05:43:45.681Z,70.80
2022-08-29T05:46:50.369Z,71.80
2022-08-29T05:49:53.692Z,71.60
2022-08-29T05:52:57.086Z,71.70
2022-08-29T05:56:00.335Z,71.60
2022-08-29T05:59:03.769Z,71.50
2022-08-29T06:02:11.747Z,71.40
2022-08-29T06:05:15.474Z,70.50
2022-08-29T06:08:19.763Z,71.40
2022-08-29T06:11:26.495Z,71.20
2022-08-29T06:14:29.828Z,71.00
2022-08-29T06:17:36.132Z,71.20
2022-08-29T06:20:39.706Z,70.70
2022-08-29T06:23:46.273Z,70.80
2022-08-29T06:26:49.777Z,70.50
2022-08-29T06:29:53.057Z,70.40
2022-08-29T06:32:57.685Z,70.30
2022-08-29T06:36:00.963Z,68.90
2022-08-29T06:39:08.384Z,70.20
2022-08-29T06:42:11.737Z,69.80
2022-08-29T06:45:15.159Z,70.00
2022-08-29T06:48:19.896Z,70.30
2022-08-29T06:51:23.909Z,70.00
2022-08-29T06:54:29.450Z,70.50
2022-08-29T06:57:32.779Z,69.30
2022-08-29T07:00:36.159Z,69.90
2022-08-29T07:03:42.072Z,69.10
2022-08-29T07:06:45.823Z,69.70
2022-08-29T07:09:49.210Z,69.80
2022-08-29T07:12:55.378Z,69.70
2022-08-29T07:15:58.873Z,69.60
2022-08-29T07:19:05.675Z,69.40
2022-08-29T07:22:12.349Z,69.00
2022-08-29T07:25:16.246Z,69.20
2022-08-29T07:28:20.940Z,68.70
2022-08-29T07:31:24.883Z,69.70
2022-08-29T07:34:36.610Z,68.50
2022-08-29T07:37:40.005Z,68.30
2022-08-29T07:40:43.345Z,68.30
2022-08-29T07:43:46.688Z,68.30
2022-08-29T07:46:50.213Z,68.40
2022-08-29T07:49:54.889Z,68.30
2022-08-29T07:52:58.451Z,69.10
2022-08-29T07:56:07.983Z,68.60
2022-08-29T07:59:11.968Z,68.40
2022-08-29T08:02:15.903Z,68.40
2022-08-29T08:05:20.643Z,68.30
2022-08-29T08:08:24.723Z,67.90
2022-08-29T08:11:28.974Z,68.80
2022-08-29T08:14:35.124Z,67.60
2022-08-29T08:17:42.117Z,67.70
2022-08-29T08:20:49.213Z,67.50
2022-08-29T08:23:53.186Z,68.00
2022-08-29T08:26:56.510Z,67.70
2022-08-29T08:30:00.384Z,68.00
2022-08-29T08:33:03.667Z,67.10
2022-08-29T08:36:16.388Z,67.00
2022-08-29T08:39:20.546Z,66.30
2022-08-29T08:42:42.257Z,66.70
2022-08-29T08:45:46.336Z,65.70
2022-08-29T08:48:51.885Z,66.80
2022-08-29T08:52:19.099Z,66.80
2022-08-29T08:55:34.849Z,66.60
2022-08-29T08:58:49.896Z,66.40
2022-08-29T09:02:07.313Z,66.20
2022-08-29T09:05:39.748Z,66.80
2022-08-29T09:08:53.453Z,65.70
2022-08-29T09:12:13.015Z,65.60
2022-08-29T09:15:20.751Z,65.80
2022-08-29T09:18:31.667Z,65.90
2022-08-29T09:21:48.316Z,66.00
2022-08-29T09:24:59.938Z,66.00
2022-08-29T09:28:08.532Z,65.60
2022-08-29T09:31:26.366Z,66.90
2022-08-29T09:35:04.541Z,66.00
2022-08-29T09:38:05.906Z,66.30
2022-08-29T09:41:11.526Z,66.30
2022-08-29T09:44:21.285Z,66.50
2022-08-29T09:47:27.565Z,66.70
2022-08-29T09:50:31.430Z,66.70
2022-08-29T09:53:34.689Z,66.80
2022-08-29T09:56:48.374Z,66.70
2022-08-29T10:00:13.165Z,66.70
2022-08-29T10:03:24.630Z,66.40
2022-08-29T10:06:32.061Z,66.70
2022-08-29T10:09:35.225Z,66.30
2022-08-29T10:12:51.732Z,66.40
2022-08-29T10:16:03.309Z,66.10
2022-08-29T10:19:13.866Z,67.00
2022-08-29T10:22:30.648Z,67.00
2022-08-29T10:25:37.990Z,66.80
2022-08-29T10:28:52.032Z,67.00
2022-08-29T10:32:10.999Z,66.40
2022-08-29T10:35:34.456Z,66.10
2022-08-29T10:38:47.883Z,65.60
2022-08-29T10:42:00.482Z,65.00
2022-08-29T10:45:18.329Z,64.90
2022-08-29T10:48:29.091Z,64.30
2022-08-29T10:51:42.712Z,64.80
2022-08-29T10:54:58.918Z,63.90
2022-08-29T10:58:12.655Z,62.60
2022-08-29T11:01:24.362Z,63.10
2022-08-29T11:04:37.228Z,62.90
2022-08-29T11:07:49.770Z,61.60
2022-08-29T11:10:53.876Z,60.90
2022-08-29T11:14:05.760Z,61.00
2022-08-29T11:17:15.832Z,60.40
2022-08-29T11:20:24.957Z,59.60
2022-08-29T11:23:38.819Z,58.90
2022-08-29T11:26:59.281Z,58.70
2022-08-29T11:30:07.922Z,58.90
2022-08-29T11:33:27.697Z,59.80
2022-08-29T11:36:52.104Z,59.60
2022-08-29T11:40:08.613Z,59.20
2022-08-29T11:43:18.152Z,58.70
2022-08-29T11:46:40.792Z,58.50
2022-08-29T11:49:51.866Z,57.50
2022-08-29T11:53:01.104Z,57.60
2022-08-29T11:56:31.507Z,57.90
2022-08-29T12:00:24.320Z,58.30
2022-08-29T12:03:56.272Z,57.60
2022-08-29T12:07:04.522Z,56.20
2022-08-29T12:10:13.490Z,56.90
2022-08-29T12:14:00.006Z,56.90
2022-08-29T12:17:09.849Z,56.90
2022-08-29T12:20:42.074Z,57.60
2022-08-29T12:23:47.134Z,57.10
2022-08-29T12:26:51.325Z,57.10
2022-08-29T12:29:55.687Z,57.30
2022-08-29T12:33:14.895Z,56.90
2022-08-29T12:36:37.789Z,55.50
2022-08-29T12:40:30.662Z,56.60
2022-08-29T12:43:41.379Z,55.70
2022-08-29T12:46:49.043Z,55.80
2022-08-29T12:49:56.026Z,56.10
2022-08-29T12:53:02.431Z,55.80
2022-08-29T12:56:21.000Z,54.60
2022-08-29T12:59:29.038Z,54.80
2022-08-29T13:02:37.218Z,54.30
2022-08-29T13:05:41.901Z,55.40
2022-08-29T13:08:50.411Z,55.20
2022-08-29T13:12:12.469Z,54.70
2022-08-29T13:15:22.849Z,54.30
2022-08-29T13:18:26.425Z,54.30
2022-08-29T13:21:33.038Z,55.50
2022-08-29T13:24:36.459Z,55.80
2022-08-29T13:27:41.103Z,54.90
2022-08-29T13:30:48.718Z,55.00
2022-08-29T13:34:21.906Z,54.80
2022-08-29T13:37:32.448Z,54.00
2022-08-29T13:40:43.171Z,54.30
2022-08-29T13:43:50.715Z,54.90
2022-08-29T13:46:59.297Z,54.80
2022-08-29T13:50:07.940Z,55.00
2022-08-29T13:53:11.264Z,55.00
2022-08-29T13:56:25.431Z,55.00
2022-08-29T13:59:37.171Z,54.10
2022-08-29T14:02:44.956Z,55.30
2022-08-29T14:05:48.677Z,54.90
2022-08-29T14:08:53.203Z,54.50
2022-08-29T14:11:56.370Z,54.50
2022-08-29T14:15:04.082Z,54.30
2022-08-29T14:18:11.752Z,53.50
2022-08-29T14:21:15.034Z,54.30
2022-08-29T14:24:18.479Z,55.00
2022-08-29T14:27:23.227Z,54.80
2022-08-29T14:30:28.438Z,53.70
2022-08-29T14:33:31.551Z,53.50
2022-08-29T14:36:35.274Z,54.10
2022-08-29T14:39:41.343Z,53.50
2022-08-29T14:42:45.551Z,53.80
2022-08-29T14:45:51.413Z,53.90
2022-08-29T14:48:54.927Z,54.50
2022-08-29T14:51:58.142Z,53.70
2022-08-29T14:55:01.321Z,53.60
2022-08-29T14:58:05.590Z,53.70
2022-08-29T15:01:10.706Z,53.60
2022-08-29T15:04:14.035Z,53.50
2022-08-29T15:07:19.111Z,53.90
2022-08-29T15:10:25.436Z,53.20
2022-08-29T15:13:28.689Z,53.80
2022-08-29T15:16:33.527Z,53.90
2022-08-29T15:20:24.353Z,53.70
2022-08-29T15:23:01.466Z,53.90
2022-08-29T15:26:04.764Z,54.20
2022-08-29T15:29:08.965Z,54.00
2022-08-29T15:32:13.849Z,53.80
2022-08-29T15:35:17.887Z,53.60
2022-08-29T15:38:20.926Z,53.10
2022-08-29T15:41:24.387Z,53.40
2022-08-29T15:44:29.486Z,53.40
2022-08-29T15:47:35.706Z,53.10
2022-08-29T15:50:39.095Z,53.30
2022-08-29T15:53:42.310Z,53.40
2022-08-29T15:56:46.094Z,52.80
2022-08-29T15:59:58.380Z,53.40
2022-08-29T16:03:07.030Z,53.50
2022-08-29T16:06:10.706Z,52.80
2022-08-29T16:09:15.547Z,54.50
2022-08-29T16:12:19.139Z,53.70
2022-08-29T16:15:22.435Z,53.60
2022-08-29T16:18:27.717Z,53.50
2022-08-29T16:21:31.812Z,52.00
2022-08-29T16:24:34.934Z,53.30
2022-08-29T16:27:38.152Z,52.50
2022-08-29T16:30:45.819Z,53.00
2022-08-29T16:33:50.919Z,52.00
2022-08-29T16:36:57.229Z,52.60
2022-08-29T16:40:01.659Z,52.70
2022-08-29T16:43:06.960Z,53.20
2022-08-29T16:46:14.764Z,52.60
2022-08-29T16:49:20.481Z,53.40
2022-08-29T16:52:23.666Z,53.70
2022-08-29T16:55:28.710Z,53.90
2022-08-29T16:58:49.784Z,54.00
2022-08-29T17:01:55.678Z,54.10
2022-08-29T17:05:01.035Z,53.30
2022-08-29T17:08:04.224Z,53.50
2022-08-29T17:11:06.871Z,54.20
2022-08-29T17:14:12.763Z,54.10
2022-08-29T17:17:16.010Z,54.20
2022-08-29T17:20:21.311Z,54.20
2022-08-29T17:23:24.670Z,53.40
2022-08-29T17:26:28.785Z,54.20
2022-08-29T17:29:31.819Z,54.10
2022-08-29T17:32:35.000Z,54.10
2022-08-29T17:35:40.206Z,53.90
2022-08-29T17:38:46.010Z,53.90
2022-08-29T17:41:51.180Z,53.80
2022-08-29T17:44:55.690Z,53.90
2022-08-29T17:47:59.234Z,53.80
2022-08-29T17:51:04.686Z,53.40
2022-08-29T17:54:12.221Z,54.30
2022-08-29T17:57:16.003Z,53.80
2022-08-29T18:00:19.497Z,54.10
2022-08-29T18:03:24.823Z,54.70
2022-08-29T18:06:32.281Z,54.20
2022-08-29T18:09:35.830Z,54.30
2022-08-29T18:12:39.638Z,54.10
2022-08-29T18:15:43.157Z,55.20
2022-08-29T18:18:47.769Z,53.90
2022-08-29T18:21:53.818Z,54.70
2022-08-29T18:24:58.106Z,54.70
2022-08-29T18:28:01.563Z,54.70
2022-08-29T18:31:05.032Z,54.80
2022-08-29T18:34:08.667Z,55.60
2022-08-29T18:37:13.426Z,55.10
2022-08-29T18:40:16.801Z,55.00
2022-08-29T18:43:21.400Z,55.20
2022-08-29T18:46:24.678Z,55.20
2022-08-29T18:49:43.363Z,55.50
2022-08-29T18:52:48.447Z,55.10
2022-08-29T18:55:53.999Z,55.60
2022-08-29T18:58:58.765Z,55.70
2022-08-29T19:02:03.222Z,55.80
2022-08-29T19:05:08.090Z,55.90
2022-08-29T19:08:13.002Z,56.30
2022-08-29T19:11:16.835Z,56.50
2022-08-29T19:14:20.558Z,56.70
2022-08-29T19:17:24.115Z,56.60
2022-08-29T19:20:48.018Z,56.30
2022-08-29T19:23:54.714Z,57.80
2022-08-29T19:26:58.207Z,56.50
2022-08-29T19:30:05.437Z,57.70
2022-08-29T19:33:12.295Z,56.80
2022-08-29T19:36:17.577Z,56.50
2022-08-29T19:39:23.060Z,56.70
2022-08-29T19:42:26.321Z,56.60
2022-08-29T19:45:30.686Z,57.70
2022-08-29T19:48:34.139Z,56.60
2022-08-29T19:51:38.382Z,56.70
2022-08-29T19:54:43.441Z,56.80
2022-08-29T19:57:47.827Z,57.00
2022-08-29T20:00:51.996Z,56.60
2022-08-29T20:03:57.220Z,57.00
2022-08-29T20:07:01.423Z,57.20
2022-08-29T20:10:08.590Z,58.50
2022-08-29T20:13:11.977Z,57.30
2022-08-29T20:16:19.206Z,57.60
2022-08-29T20:19:22.754Z,57.60
2022-08-29T20:22:25.884Z,57.70
2022-08-29T20:25:31.349Z,57.80
2022-08-29T20:28:34.538Z,57.90
2022-08-29T20:31:39.112Z,57.90
2022-08-29T20:34:42.527Z,58.00
2022-08-29T20:37:44.953Z,58.00
2022-08-29T20:40:50.250Z,58.00
2022-08-29T20:43:53.453Z,57.90
2022-08-29T20:46:57.894Z,58.10
2022-08-29T20:50:01.365Z,58.20
2022-08-29T20:53:04.777Z,58.10
2022-08-29T20:56:09.810Z,58.30
2022-08-29T20:59:13.464Z,58.30
2022-08-29T21:02:17.605Z,58.90
2022-08-29T21:05:38.355Z,58.60
2022-08-29T21:08:42.228Z,59.20
2022-08-29T21:11:46.861Z,58.70
2022-08-29T21:14:50.599Z,58.80
2022-08-29T21:17:54.885Z,58.20
2022-08-29T21:20:58.115Z,58.70
2022-08-29T21:24:01.226Z,58.60
2022-08-29T21:27:06.553Z,58.80
2022-08-29T21:30:11.788Z,58.70
2022-08-29T21:33:15.267Z,58.90
2022-08-29T21:36:24.251Z,59.10
2022-08-29T21:39:28.462Z,59.00
2022-08-29T21:42:33.890Z,60.10
2022-08-29T21:45:37.122Z,58.10
2022-08-29T21:48:40.301Z,59.00
2022-08-29T21:51:44.128Z,58.60
2022-08-29T21:54:48.827Z,58.90
2022-08-29T21:57:52.399Z,59.00
2022-08-29T22:00:56.021Z,59.00
2022-08-29T22:04:01.257Z,59.80
2022-08-29T22:07:04.865Z,58.60
2022-08-29T22:10:09.830Z,58.90
2022-08-29T22:13:14.738Z,59.10
2022-08-29T22:16:30.316Z,59.10
2022-08-29T22:19:36.071Z,58.80
2022-08-29T22:22:39.254Z,58.70
2022-08-29T22:25:42.466Z,58.70
2022-08-29T22:28:47.452Z,58.50
2022-08-29T22:31:51.569Z,59.40
2022-08-29T22:34:54.627Z,58.60
2022-08-29T22:37:58.314Z,57.80
2022-08-29T22:41:01.649Z,57.90
2022-08-29T22:47:32.275Z,58.30
2022-08-29T22:50:37.096Z,58.40
2022-08-29T22:53:40.311Z,58.40
2022-08-29T22:56:46.564Z,58.50
2022-08-29T22:59:51.378Z,58.60
2022-08-29T23:02:55.428Z,58.50
2022-08-29T23:05:58.921Z,58.30
2022-08-29T23:09:02.307Z,59.00
2022-08-29T23:12:07.015Z,59.90
2022-08-29T23:15:15.730Z,58.10
2022-08-29T23:18:18.847Z,59.20
2022-08-29T23:21:22.847Z,58.90
2022-08-29T23:24:26.760Z,58.10
2022-08-29T23:27:33.338Z,59.60
2022-08-29T23:30:38.076Z,59.40
2022-08-29T23:33:41.816Z,59.40
2022-08-29T23:36:44.960Z,59.30
2022-08-29T23:39:48.147Z,59.30
2022-08-29T23:42:51.328Z,59.40
2022-08-29T23:45:57.042Z,59.50
2022-08-29T23:49:01.096Z,59.50
2022-08-29T23:52:05.221Z,59.50
2022-08-29T23:55:09.679Z,59.60
2022-08-29T23:58:13.270Z,58.70
